createdAt,value
2022-11-16T00:00:27.919Z,23.25
2022-11-16T00:02:37.263Z,21.90
2022-11-16T00:04:39.407Z,21.67
2022-11-16T00:06:41.711Z,21.88
2022-11-16T00:09:08.276Z,21.67
2022-11-16T00:11:13.374Z,21.27
2022-11-16T00:13:15.795Z,20.40
2022-11-16T00:15:17.694Z,22.17
2022-11-16T00:17:19.655Z,21.02
2022-11-16T00:19:22.118Z,22.70
2022-11-16T00:21:25.041Z,21.83
2022-11-16T00:23:26.947Z,20.25
2022-11-16T00:25:29.249Z,21.02
2022-11-16T00:27:31.182Z,20.58
2022-11-16T00:29:33.186Z,20.27
2022-11-16T00:31:35.458Z,20.58
2022-11-16T00:33:37.626Z,22.58
2022-11-16T00:35:41.066Z,21.92
2022-11-16T00:37:43.312Z,21.48
2022-11-16T00:39:45.186Z,21.58
2022-11-16T00:41:47.924Z,18.38
2022-11-16T00:43:50.187Z,21.02
2022-11-16T00:45:52.350Z,20.48
2022-11-16T00:47:59.179Z,20.83
2022-11-16T00:50:02.722Z,19.48
2022-11-16T00:52:04.656Z,20.15
2022-11-16T00:54:08.158Z,21.42
2022-11-16T00:56:10.405Z,19.88
2022-11-16T00:58:12.876Z,19.15
2022-11-16T01:00:15.589Z,17.65
2022-11-16T01:02:18.315Z,18.10
2022-11-16T01:04:20.277Z,17.10
2022-11-16T01:06:23.525Z,18.65
2022-11-16T01:08:25.772Z,17.60
2022-11-16T01:10:28.671Z,18.50
2022-11-16T01:12:30.600Z,18.10
2022-11-16T01:14:32.915Z,20.13
2022-11-16T01:16:35.128Z,17.58
2022-11-16T01:18:37.873Z,18.20
2022-11-16T01:22:43.760Z,16.95
2022-11-16T01:24:47.220Z,19.52
2022-11-16T01:26:49.587Z,17.67
2022-11-16T01:28:51.817Z,18.73
2022-11-16T01:30:53.956Z,17.90
2022-11-16T01:32:56.200Z,18.98
2022-11-16T01:34:58.209Z,18.15
2022-11-16T01:37:00.117Z,18.27
2022-11-16T01:39:05.218Z,18.55
2022-11-16T01:41:07.202Z,19.48
2022-11-16T01:43:22.095Z,19.75
2022-11-16T01:45:38.877Z,19.67
2022-11-16T01:47:40.867Z,18.88
2022-11-16T01:49:46.575Z,19.52
2022-11-16T01:51:53.658Z,20.30
2022-11-16T01:53:56.827Z,19.98
2022-11-16T01:55:59.298Z,19.52
2022-11-16T01:58:02.546Z,19.55
2022-11-16T02:00:07.915Z,20.40
2022-11-16T02:02:10.219Z,19.27
2022-11-16T02:04:13.288Z,18.73
2022-11-16T02:06:27.340Z,18.92
2022-11-16T02:09:03.940Z,18.80
2022-11-16T02:11:27.318Z,18.80
2022-11-16T02:13:42.516Z,17.50
2022-11-16T02:15:54.032Z,18.90
2022-11-16T02:18:20.608Z,17.65
2022-11-16T02:20:31.426Z,18.67
2022-11-16T02:22:54.900Z,18.25
2022-11-16T02:25:35.979Z,16.90
2022-11-16T02:27:54.002Z,17.20
2022-11-16T02:29:57.318Z,17.80
2022-11-16T02:32:17.274Z,17.83
2022-11-16T02:34:22.913Z,17.90
2022-11-16T02:36:25.752Z,18.98
2022-11-16T02:38:32.077Z,18.75
2022-11-16T02:40:36.161Z,18.55
2022-11-16T02:43:01.067Z,19.05
2022-11-16T02:45:06.456Z,18.48
2022-11-16T02:47:14.850Z,18.05
2022-11-16T02:49:20.147Z,18.48
2022-11-16T02:51:24.566Z,19.63
2022-11-16T02:53:28.072Z,17.75
2022-11-16T02:55:34.459Z,19.33
2022-11-16T02:57:51.590Z,18.08
2022-11-16T02:59:56.613Z,18.92
2022-11-16T03:02:14.750Z,18.08
2022-11-16T03:04:41.443Z,18.70
2022-11-16T03:06:46.902Z,18.40
2022-11-16T03:08:56.864Z,19.55
2022-11-16T03:11:21.935Z,19.42
2022-11-16T03:13:28.366Z,18.83
2022-11-16T03:15:30.368Z,20.17
2022-11-16T03:17:39.362Z,18.48
2022-11-16T03:20:07.453Z,20.80
2022-11-16T03:22:18.396Z,18.63
2022-11-16T03:24:20.759Z,20.65
2022-11-16T03:26:26.800Z,20.55
2022-11-16T03:28:42.059Z,21.30
2022-11-16T03:30:52.104Z,20.40
2022-11-16T03:33:03.283Z,20.52
2022-11-16T03:35:26.337Z,21.33
2022-11-16T03:37:30.244Z,20.80
2022-11-16T03:39:37.363Z,20.98
2022-11-16T03:41:44.306Z,22.13
2022-11-16T03:43:48.718Z,20.92
2022-11-16T03:45:50.948Z,20.95
2022-11-16T03:47:52.763Z,21.60
2022-11-16T03:49:54.643Z,21.98
2022-11-16T03:51:58.239Z,21.60
2022-11-16T03:54:00.191Z,21.23
2022-11-16T03:56:02.434Z,21.95
2022-11-16T03:58:05.362Z,21.98
2022-11-16T04:00:08.291Z,21.70
2022-11-16T04:02:10.976Z,22.73
2022-11-16T04:04:33.903Z,22.00
2022-11-16T04:06:54.085Z,22.17
2022-11-16T04:09:28.364Z,21.15
2022-11-16T04:14:10.102Z,22.02
2022-11-16T04:16:30.308Z,22.58
2022-11-16T04:18:50.944Z,23.92
2022-11-16T04:21:11.498Z,22.60
2022-11-16T04:23:34.868Z,22.75
2022-11-16T04:25:39.930Z,22.40
2022-11-16T04:28:00.838Z,22.60
2022-11-16T04:30:04.133Z,22.95
2022-11-16T04:32:25.424Z,22.90
2022-11-16T04:34:46.346Z,23.00
2022-11-16T04:37:06.836Z,22.58
2022-11-16T04:39:09.019Z,23.15
2022-11-16T04:41:31.224Z,22.85
2022-11-16T04:43:33.039Z,22.67
2022-11-16T04:45:53.470Z,24.20
2022-11-16T04:47:55.737Z,24.15
2022-11-16T04:49:57.629Z,25.08
2022-11-16T04:51:59.938Z,23.80
2022-11-16T04:54:02.132Z,24.27
2022-11-16T04:56:04.244Z,22.90
2022-11-16T04:58:06.395Z,22.93
2022-11-16T05:00:09.389Z,25.42
2022-11-16T05:02:11.289Z,24.92
2022-11-16T05:04:13.228Z,24.35
2022-11-16T05:06:15.420Z,25.27
2022-11-16T05:08:17.254Z,25.00
2022-11-16T05:10:19.297Z,24.25
2022-11-16T05:12:27.010Z,26.33
2022-11-16T05:14:28.890Z,24.10
2022-11-16T05:16:30.859Z,24.55
2022-11-16T05:18:33.375Z,25.52
2022-11-16T05:20:54.114Z,25.38
2022-11-16T05:22:58.066Z,24.75
2022-11-16T05:25:00.468Z,24.60
2022-11-16T05:27:10.782Z,25.13
2022-11-16T05:29:12.695Z,24.80
2022-11-16T05:31:15.184Z,23.70
2022-11-16T05:33:18.661Z,24.05
2022-11-16T05:35:20.567Z,24.55
2022-11-16T05:37:26.339Z,25.25
2022-11-16T05:39:28.199Z,24.58
2022-11-16T05:41:30.644Z,23.48
2022-11-16T05:43:32.855Z,23.05
2022-11-16T05:45:34.751Z,24.85
2022-11-16T05:47:36.630Z,25.10
2022-11-16T05:49:38.824Z,22.92
2022-11-16T05:51:42.314Z,24.60
2022-11-16T05:53:44.558Z,25.83
2022-11-16T05:55:46.888Z,24.77
2022-11-16T05:57:48.806Z,23.98
2022-11-16T05:59:50.672Z,23.23
2022-11-16T06:01:53.403Z,24.05
2022-11-16T06:03:55.408Z,25.38
2022-11-16T06:05:58.279Z,24.23
2022-11-16T06:08:00.632Z,23.85
2022-11-16T06:10:02.577Z,26.10
2022-11-16T06:12:05.158Z,23.75
2022-11-16T06:14:08.117Z,24.00
2022-11-16T06:16:10.364Z,24.73
2022-11-16T06:18:12.331Z,25.33
2022-11-16T06:20:14.710Z,24.00
2022-11-16T06:22:16.706Z,25.10
2022-11-16T06:24:18.652Z,24.50
2022-11-16T06:26:20.983Z,24.75
2022-11-16T06:28:23.336Z,24.08
2022-11-16T06:30:25.821Z,24.10
2022-11-16T06:32:28.139Z,23.27
2022-11-16T06:34:30.246Z,23.13
2022-11-16T06:36:32.129Z,24.90
2022-11-16T06:38:34.644Z,23.73
2022-11-16T06:40:38.392Z,24.15
2022-11-16T06:42:40.350Z,23.42
2022-11-16T06:44:42.549Z,21.23
2022-11-16T06:46:44.513Z,21.58
2022-11-16T06:48:46.350Z,22.42
2022-11-16T06:50:49.929Z,22.33
2022-11-16T06:52:51.758Z,21.52
2022-11-16T06:54:53.723Z,21.70
2022-11-16T06:56:55.896Z,23.00
2022-11-16T06:59:00.412Z,21.98
2022-11-16T07:01:07.081Z,21.88
2022-11-16T07:03:09.684Z,20.85
2022-11-16T07:05:11.644Z,23.63
2022-11-16T07:07:15.177Z,22.58
2022-11-16T07:09:17.409Z,23.92
2022-11-16T07:11:20.415Z,24.38
2022-11-16T07:15:24.509Z,22.70
2022-11-16T07:17:26.492Z,24.65
2022-11-16T07:19:28.375Z,23.92
2022-11-16T07:21:31.410Z,23.55
2022-11-16T07:23:33.572Z,23.80
2022-11-16T07:25:35.551Z,22.88
2022-11-16T07:27:37.926Z,23.58
2022-11-16T07:29:39.822Z,26.70
2022-11-16T07:31:41.675Z,23.13
2022-11-16T07:33:44.108Z,23.85
2022-11-16T07:35:45.905Z,24.45
2022-11-16T07:37:48.002Z,25.13
2022-11-16T07:39:50.170Z,25.48
2022-11-16T07:41:53.710Z,24.95
2022-11-16T07:43:56.952Z,26.15
2022-11-16T07:46:45.159Z,26.30
2022-11-16T07:48:42.736Z,25.02
2022-11-16T07:50:45.358Z,27.30
2022-11-16T07:52:47.354Z,26.95
2022-11-16T07:54:49.236Z,26.70
2022-11-16T07:56:51.427Z,27.92
2022-11-16T07:58:53.210Z,26.23
2022-11-16T08:00:55.463Z,27.27
2022-11-16T08:02:57.651Z,25.88
2022-11-16T08:04:59.512Z,25.33
2022-11-16T08:07:01.354Z,26.42
2022-11-16T08:09:04.100Z,26.33
2022-11-16T08:11:08.577Z,26.02
2022-11-16T08:13:10.537Z,25.05
2022-11-16T08:15:14.466Z,27.33
2022-11-16T08:17:16.250Z,23.85
2022-11-16T08:19:18.064Z,24.95
2022-11-16T08:21:20.236Z,24.20
2022-11-16T08:23:22.063Z,21.65
2022-11-16T08:25:23.922Z,22.10
2022-11-16T08:27:26.900Z,20.80
2022-11-16T08:29:29.495Z,20.73
2022-11-16T08:31:31.446Z,20.52
2022-11-16T08:33:33.664Z,20.55
2022-11-16T08:35:36.392Z,20.85
2022-11-16T08:37:38.198Z,19.15
2022-11-16T08:39:40.564Z,19.93
2022-11-16T08:41:44.304Z,18.77
2022-11-16T08:43:50.826Z,19.83
2022-11-16T08:45:57.459Z,19.38
2022-11-16T08:48:04.017Z,19.15
2022-11-16T08:50:06.308Z,15.70
2022-11-16T08:52:08.478Z,16.77
2022-11-16T08:54:10.723Z,16.43
2022-11-16T08:56:13.759Z,15.75
2022-11-16T08:58:16.130Z,15.95
2022-11-16T09:00:18.899Z,14.23
2022-11-16T09:02:25.627Z,14.73
2022-11-16T09:04:32.769Z,14.27
2022-11-16T09:06:37.687Z,13.43
2022-11-16T09:08:41.949Z,13.90
2022-11-16T09:10:44.185Z,12.52
2022-11-16T09:12:46.204Z,12.73
2022-11-16T09:14:48.043Z,13.48
2022-11-16T09:16:50.394Z,12.50
2022-11-16T09:18:52.494Z,11.60
2022-11-16T09:20:55.155Z,12.50
2022-11-16T09:22:57.367Z,12.80
2022-11-16T09:24:59.495Z,12.63
2022-11-16T09:27:04.364Z,11.85
2022-11-16T09:29:06.986Z,11.32
2022-11-16T09:31:10.308Z,12.40
2022-11-16T09:33:12.588Z,12.77
2022-11-16T09:35:14.812Z,11.95
2022-11-16T09:37:16.708Z,13.48
2022-11-16T09:39:30.639Z,11.90
2022-11-16T09:41:45.890Z,11.05
2022-11-16T09:44:08.883Z,11.07
2022-11-16T09:46:25.775Z,9.77
2022-11-16T09:48:28.681Z,9.20
2022-11-16T09:50:53.225Z,10.05
2022-11-16T09:53:01.534Z,10.00
2022-11-16T09:55:25.709Z,9.68
2022-11-16T09:57:35.542Z,10.27
2022-11-16T09:59:43.683Z,10.02
2022-11-16T10:01:57.435Z,9.85
2022-11-16T10:04:07.616Z,8.90
2022-11-16T10:06:51.533Z,9.73
2022-11-16T10:08:56.786Z,9.48
2022-11-16T10:11:19.256Z,9.25
2022-11-16T10:13:35.464Z,8.88
2022-11-16T10:15:50.908Z,9.50
2022-11-16T10:18:20.262Z,9.63
2022-11-16T10:20:44.431Z,9.85
2022-11-16T10:22:58.782Z,9.98
2022-11-16T10:25:15.286Z,9.10
2022-11-16T10:27:26.164Z,9.50
2022-11-16T10:29:57.286Z,9.05
2022-11-16T10:32:16.282Z,8.93
2022-11-16T10:34:37.406Z,8.48
2022-11-16T10:36:39.439Z,8.55
2022-11-16T10:38:43.397Z,8.70
2022-11-16T10:40:51.324Z,8.48
2022-11-16T10:43:05.433Z,8.63
2022-11-16T10:45:11.124Z,8.95
2022-11-16T10:47:42.026Z,8.40
2022-11-16T10:49:52.282Z,9.30
2022-11-16T10:51:54.488Z,8.75
2022-11-16T10:53:57.193Z,9.13
2022-11-16T10:56:15.028Z,9.18
2022-11-16T10:58:17.223Z,8.20
2022-11-16T11:00:46.488Z,7.80
2022-11-16T11:02:49.033Z,8.57
2022-11-16T11:05:17.230Z,8.43
2022-11-16T11:07:30.053Z,7.55
2022-11-16T11:09:36.948Z,8.32
2022-11-16T11:11:57.614Z,7.03
2022-11-16T11:14:18.127Z,6.93
2022-11-16T11:16:20.223Z,7.35
2022-11-16T11:18:29.158Z,7.10
2022-11-16T11:20:31.557Z,7.60
2022-11-16T11:22:41.845Z,7.57
2022-11-16T11:24:48.662Z,8.02
2022-11-16T11:26:58.027Z,7.10
2022-11-16T11:29:01.312Z,6.90
2022-11-16T11:31:06.188Z,6.30
2022-11-16T11:33:15.653Z,6.35
2022-11-16T11:35:27.337Z,6.53
2022-11-16T11:37:33.184Z,6.88
2022-11-16T11:39:37.109Z,7.07
2022-11-16T11:41:44.594Z,6.25
2022-11-16T11:44:02.755Z,6.85
2022-11-16T11:46:16.549Z,6.82
2022-11-16T11:48:30.058Z,6.45
2022-11-16T11:50:53.955Z,6.70
2022-11-16T11:53:38.659Z,5.90
2022-11-16T11:55:40.491Z,5.72
2022-11-16T11:57:45.111Z,6.10
2022-11-16T11:59:48.583Z,4.95
2022-11-16T12:02:16.468Z,4.57
2022-11-16T12:04:43.496Z,3.80
2022-11-16T12:07:12.662Z,4.10
2022-11-16T12:09:45.782Z,4.20
2022-11-16T12:12:15.090Z,4.30
2022-11-16T12:14:23.133Z,4.47
2022-11-16T12:16:45.542Z,4.18
2022-11-16T12:19:04.967Z,3.67
2022-11-16T12:21:12.388Z,2.88
2022-11-16T12:23:35.887Z,2.25
2022-11-16T12:26:07.816Z,2.50
2022-11-16T12:28:39.579Z,2.40
2022-11-16T12:31:13.819Z,2.25
2022-11-16T12:35:42.297Z,2.13
2022-11-16T12:38:00.025Z,1.65
2022-11-16T12:40:20.543Z,1.73
2022-11-16T12:42:29.919Z,2.05
2022-11-16T12:44:54.120Z,2.45
2022-11-16T12:47:05.098Z,1.90
2022-11-16T12:49:27.410Z,3.70
2022-11-16T12:51:56.857Z,2.80
2022-11-16T12:54:11.858Z,2.38
2022-11-16T12:56:23.021Z,2.70
2022-11-16T12:58:39.454Z,2.83
2022-11-16T13:00:53.326Z,2.50
2022-11-16T13:03:22.045Z,2.90
2022-11-16T13:05:33.636Z,3.20
2022-11-16T13:07:44.166Z,2.60
2022-11-16T13:09:51.356Z,3.33
2022-11-16T13:11:58.426Z,3.22
2022-11-16T13:14:05.350Z,3.55
2022-11-16T13:16:08.431Z,3.13
2022-11-16T13:18:16.879Z,3.33
2022-11-16T13:20:31.221Z,3.97
2022-11-16T13:22:36.682Z,4.50
2022-11-16T13:24:53.504Z,4.03
2022-11-16T13:27:23.213Z,4.60
2022-11-16T13:29:52.077Z,4.43
2022-11-16T13:32:13.770Z,4.50
2022-11-16T13:34:23.634Z,4.90
2022-11-16T13:36:39.303Z,5.10
2022-11-16T13:38:54.287Z,4.88
2022-11-16T13:41:29.236Z,6.82
2022-11-16T13:43:31.090Z,5.53
2022-11-16T13:45:44.507Z,5.10
2022-11-16T13:47:54.857Z,5.50
2022-11-16T13:50:00.194Z,5.75
2022-11-16T13:52:26.584Z,5.95
2022-11-16T13:54:49.061Z,5.22
2022-11-16T13:56:51.839Z,5.75
2022-11-16T13:58:57.380Z,5.90
2022-11-16T14:01:04.367Z,5.50
2022-11-16T14:03:15.571Z,5.65
2022-11-16T14:05:29.491Z,5.00
2022-11-16T14:07:35.497Z,5.10
2022-11-16T14:09:49.274Z,4.68
2022-11-16T14:11:51.088Z,5.43
2022-11-16T14:13:52.883Z,5.10
2022-11-16T14:16:17.216Z,5.50
2022-11-16T14:18:22.019Z,5.28
2022-11-16T14:20:38.509Z,6.25
2022-11-16T14:23:11.518Z,4.35
2022-11-16T14:25:38.989Z,5.07
2022-11-16T14:27:54.368Z,4.82
2022-11-16T14:30:03.225Z,4.13
2022-11-16T14:32:22.585Z,4.63
2022-11-16T14:34:39.902Z,4.20
2022-11-16T14:36:44.395Z,4.90
2022-11-16T14:38:46.316Z,5.22
2022-11-16T14:40:56.193Z,5.07
2022-11-16T14:43:21.570Z,4.90
2022-11-16T14:45:26.499Z,4.40
2022-11-16T14:47:32.289Z,4.75
2022-11-16T14:49:37.063Z,4.88
2022-11-16T14:51:44.911Z,5.15
2022-11-16T14:53:57.743Z,7.80
2022-11-16T14:56:11.588Z,3.95
2022-11-16T14:58:21.923Z,4.53
2022-11-16T15:00:30.277Z,5.03
2022-11-16T15:02:33.199Z,4.72
2022-11-16T15:04:35.075Z,5.03
2022-11-16T15:06:46.125Z,5.35
2022-11-16T15:08:51.931Z,5.97
2022-11-16T15:10:53.775Z,5.60
2022-11-16T15:12:57.651Z,6.18
2022-11-16T15:15:06.128Z,5.38
2022-11-16T15:17:09.831Z,5.95
2022-11-16T15:19:12.422Z,6.32
2022-11-16T15:21:24.076Z,6.22
2022-11-16T15:23:31.092Z,6.70
2022-11-16T15:25:43.405Z,7.13
2022-11-16T15:27:45.222Z,6.57
2022-11-16T15:29:48.098Z,6.82
2022-11-16T15:31:51.106Z,7.05
2022-11-16T15:33:52.954Z,6.43
2022-11-16T15:35:55.779Z,7.68
2022-11-16T15:38:05.195Z,7.32
2022-11-16T15:40:09.970Z,7.07
2022-11-16T15:42:15.139Z,7.65
2022-11-16T15:44:20.409Z,6.85
2022-11-16T15:46:24.300Z,7.85
2022-11-16T15:48:27.896Z,8.13
2022-11-16T15:50:30.262Z,7.65
2022-11-16T15:52:44.773Z,8.15
2022-11-16T15:55:03.966Z,9.00
2022-11-16T15:57:09.155Z,8.57
2022-11-16T15:59:13.909Z,8.10
2022-11-16T16:01:16.975Z,7.75
2022-11-16T16:03:21.830Z,8.93
2022-11-16T16:05:34.734Z,9.70
2022-11-16T16:07:44.051Z,8.70
2022-11-16T16:09:46.240Z,8.10
2022-11-16T16:11:48.183Z,8.38
2022-11-16T16:13:58.821Z,8.73
2022-11-16T16:16:36.442Z,8.73
2022-11-16T16:18:43.480Z,9.43
2022-11-16T16:20:48.856Z,9.60
2022-11-16T16:22:51.819Z,8.80
2022-11-16T16:24:54.128Z,9.57
2022-11-16T16:26:56.292Z,10.00
2022-11-16T16:28:58.126Z,10.27
2022-11-16T16:30:59.931Z,10.32
2022-11-16T16:33:02.358Z,10.23
2022-11-16T16:35:07.389Z,10.55
2022-11-16T16:37:11.295Z,9.90
2022-11-16T16:39:13.443Z,10.15
2022-11-16T16:41:24.318Z,9.77
2022-11-16T16:43:27.334Z,8.75
2022-11-16T16:45:37.170Z,9.73
2022-11-16T16:47:39.050Z,9.75
2022-11-16T16:49:41.140Z,7.43
2022-11-16T16:51:43.275Z,9.07
2022-11-16T16:53:45.054Z,10.00
2022-11-16T16:55:49.968Z,8.63
2022-11-16T16:57:54.066Z,9.07
2022-11-16T16:59:55.945Z,7.38
2022-11-16T17:01:58.957Z,8.15
2022-11-16T17:04:01.177Z,6.93
2022-11-16T17:06:03.156Z,8.10
2022-11-16T17:08:05.324Z,8.27
2022-11-16T17:10:07.896Z,8.02
2022-11-16T17:12:11.087Z,7.53
2022-11-16T17:14:12.883Z,7.47
2022-11-16T17:16:15.174Z,7.50
2022-11-16T17:18:17.040Z,6.65
2022-11-16T17:20:18.916Z,6.32
2022-11-16T17:22:21.567Z,5.97
2022-11-16T17:24:23.371Z,6.03
2022-11-16T17:26:29.380Z,6.63
2022-11-16T17:28:31.844Z,6.22
2022-11-16T17:30:33.669Z,6.85
2022-11-16T17:32:35.498Z,6.63
2022-11-16T17:34:40.004Z,18.08
2022-11-16T17:36:42.809Z,7.90
2022-11-16T17:38:45.228Z,8.50
2022-11-16T17:40:47.462Z,8.30
2022-11-16T17:42:49.211Z,9.50
2022-11-16T17:44:51.249Z,10.00
2022-11-16T17:46:53.386Z,9.70
2022-11-16T17:48:55.293Z,9.75
2022-11-16T17:50:57.208Z,9.93
2022-11-16T17:52:59.369Z,8.52
2022-11-16T17:55:01.126Z,8.05
2022-11-16T17:57:02.991Z,7.47
2022-11-16T17:59:05.523Z,7.97
2022-11-16T18:01:07.745Z,7.65
2022-11-16T18:03:09.676Z,6.53
2022-11-16T18:05:11.815Z,7.13
2022-11-16T18:07:13.639Z,7.05
2022-11-16T18:09:15.594Z,7.20
2022-11-16T18:11:19.954Z,7.18
2022-11-16T18:13:21.731Z,6.38
2022-11-16T18:15:30.552Z,6.95
2022-11-16T18:17:34.802Z,8.00
2022-11-16T18:19:36.570Z,6.22
2022-11-16T18:21:40.601Z,5.93
2022-11-16T18:23:43.113Z,5.78
2022-11-16T18:25:44.910Z,6.13
2022-11-16T18:27:53.818Z,5.95
2022-11-16T18:29:56.088Z,6.53
2022-11-16T18:31:58.012Z,5.93
2022-11-16T18:34:01.523Z,5.55
2022-11-16T18:36:05.128Z,6.70
2022-11-16T18:38:08.203Z,7.13
2022-11-16T18:40:12.105Z,6.95
2022-11-16T18:42:14.409Z,8.38
2022-11-16T18:44:16.235Z,9.93
2022-11-16T18:46:23.955Z,8.48
2022-11-16T18:48:26.456Z,8.82
2022-11-16T18:50:28.314Z,8.95
2022-11-16T18:52:30.120Z,13.25
2022-11-16T18:54:32.263Z,8.73
2022-11-16T18:56:35.148Z,9.05
2022-11-16T18:58:50.313Z,8.63
2022-11-16T19:00:53.717Z,8.18
2022-11-16T19:02:55.530Z,7.80
2022-11-16T19:04:57.314Z,7.10
2022-11-16T19:06:59.586Z,7.78
2022-11-16T19:09:03.978Z,6.75
2022-11-16T19:11:11.687Z,7.30
2022-11-16T19:13:13.829Z,8.77
2022-11-16T19:15:15.794Z,7.50
2022-11-16T19:17:19.042Z,7.95
2022-11-16T19:19:22.092Z,7.45
2022-11-16T19:21:24.348Z,6.88
2022-11-16T19:23:26.140Z,6.78
2022-11-16T19:25:28.376Z,7.00
2022-11-16T19:27:32.248Z,7.15
2022-11-16T19:29:34.430Z,7.90
2022-11-16T19:31:36.662Z,9.20
2022-11-16T19:33:39.012Z,7.45
2022-11-16T19:35:40.948Z,8.18
2022-11-16T19:37:43.374Z,7.90
2022-11-16T19:39:45.156Z,8.37
2022-11-16T19:41:47.004Z,8.48
2022-11-16T19:43:52.669Z,8.50
2022-11-16T19:45:54.735Z,8.57
2022-11-16T19:47:57.311Z,8.88
2022-11-16T19:52:01.396Z,8.77
2022-11-16T19:54:03.594Z,10.55
2022-11-16T19:56:07.507Z,9.27
2022-11-16T19:58:09.267Z,9.73
2022-11-16T20:00:11.685Z,10.73
2022-11-16T20:02:13.931Z,10.90
2022-11-16T20:04:15.995Z,11.55
2022-11-16T20:06:23.654Z,11.40
2022-11-16T20:08:25.816Z,11.90
2022-11-16T20:10:29.616Z,11.25
2022-11-16T20:12:31.455Z,11.40
2022-11-16T20:14:33.687Z,12.90
2022-11-16T20:16:39.527Z,12.10
2022-11-16T20:18:42.494Z,11.73
2022-11-16T20:20:44.652Z,13.23
2022-11-16T20:22:50.828Z,13.18
2022-11-16T20:24:54.706Z,12.50
2022-11-16T20:26:57.101Z,13.10
2022-11-16T20:28:59.235Z,12.17
2022-11-16T20:31:05.101Z,13.20
2022-11-16T20:33:07.281Z,13.20
2022-11-16T20:35:09.321Z,12.63
2022-11-16T20:37:11.127Z,12.80
2022-11-16T20:39:15.523Z,13.43
2022-11-16T20:41:19.880Z,13.55
2022-11-16T20:43:21.936Z,13.43
2022-11-16T20:45:24.080Z,13.35
2022-11-16T20:47:25.960Z,13.68
2022-11-16T20:49:27.840Z,13.40
2022-11-16T20:51:30.226Z,13.65
2022-11-16T20:53:32.536Z,14.15
2022-11-16T20:55:34.830Z,13.15
2022-11-16T20:57:37.416Z,13.50
2022-11-16T20:59:39.271Z,13.80
2022-11-16T21:01:44.780Z,14.52
2022-11-16T21:03:47.159Z,14.32
2022-11-16T21:05:51.811Z,13.30
2022-11-16T21:07:53.655Z,13.68
2022-11-16T21:10:14.295Z,14.20
2022-11-16T21:12:38.775Z,13.52
2022-11-16T21:14:43.731Z,13.45
2022-11-16T21:16:45.695Z,13.55
2022-11-16T21:18:47.504Z,14.18
2022-11-16T21:20:57.906Z,13.43
2022-11-16T21:22:59.751Z,13.13
2022-11-16T21:25:01.707Z,12.95
2022-11-16T21:27:04.166Z,14.27
2022-11-16T21:29:06.745Z,13.87
2022-11-16T21:31:11.392Z,14.77
2022-11-16T21:33:13.575Z,13.65
2022-11-16T21:35:15.405Z,12.77
2022-11-16T21:37:17.172Z,13.80
2022-11-16T21:39:19.351Z,12.68
2022-11-16T21:41:23.770Z,12.43
2022-11-16T21:43:26.136Z,12.98
2022-11-16T21:45:28.401Z,13.35
2022-11-16T21:47:30.232Z,13.68
2022-11-16T21:49:32.146Z,12.52
2022-11-16T21:51:34.283Z,13.98
2022-11-16T21:53:37.139Z,12.07
2022-11-16T21:55:39.227Z,12.90
2022-11-16T21:57:41.481Z,13.02
2022-11-16T21:59:43.291Z,12.38
2022-11-16T22:02:00.599Z,13.07
2022-11-16T22:04:21.365Z,12.35
2022-11-16T22:06:41.661Z,12.07
2022-11-16T22:08:43.890Z,10.40
2022-11-16T22:10:53.025Z,10.52
2022-11-16T22:12:54.814Z,10.55
2022-11-16T22:14:56.916Z,10.93
2022-11-16T22:16:59.073Z,10.40
2022-11-16T22:19:00.901Z,9.63
2022-11-16T22:21:03.136Z,9.85
2022-11-16T22:23:05.298Z,8.88
2022-11-16T22:25:07.935Z,9.30
2022-11-16T22:27:09.709Z,8.80
2022-11-16T22:29:11.868Z,9.53
2022-11-16T22:31:15.054Z,9.20
2022-11-16T22:33:16.839Z,10.85
2022-11-16T22:35:21.767Z,9.38
2022-11-16T22:37:23.602Z,8.75
2022-11-16T22:39:25.623Z,9.07
2022-11-16T22:41:27.780Z,8.18
2022-11-16T22:43:31.189Z,7.93
2022-11-16T22:45:33.074Z,8.27
2022-11-16T22:47:35.902Z,8.43
2022-11-16T22:49:37.728Z,8.00
2022-11-16T22:51:39.597Z,7.97
2022-11-16T22:53:41.802Z,7.95
2022-11-16T22:55:43.642Z,6.97
2022-11-16T22:57:45.477Z,8.02
2022-11-16T22:59:47.778Z,7.20
2022-11-16T23:01:49.563Z,6.90
2022-11-16T23:03:51.565Z,7.88
2022-11-16T23:05:53.760Z,7.68
2022-11-16T23:07:56.918Z,7.43
2022-11-16T23:09:58.774Z,7.88
2022-11-16T23:12:19.991Z,7.28
2022-11-16T23:14:40.291Z,8.27
2022-11-16T23:16:43.982Z,7.53
2022-11-16T23:18:46.099Z,7.18
2022-11-16T23:21:13.958Z,7.20
2022-11-16T23:23:36.124Z,6.97
2022-11-16T23:25:57.060Z,6.70
2022-11-16T23:28:06.143Z,6.70
2022-11-16T23:30:12.399Z,6.90
2022-11-16T23:32:15.279Z,5.88
2022-11-16T23:34:17.085Z,6.03
2022-11-16T23:36:18.890Z,5.95
2022-11-16T23:38:21.040Z,5.80
2022-11-16T23:40:25.569Z,5.75
2022-11-16T23:42:45.910Z,5.57
2022-11-16T23:44:48.243Z,5.15
2022-11-16T23:46:50.017Z,5.53
2022-11-16T23:48:51.955Z,5.20
2022-11-16T23:50:54.062Z,5.03
2022-11-16T23:52:55.829Z,5.30
2022-11-16T23:54:57.667Z,5.10
2022-11-16T23:57:00.352Z,4.47
2022-11-16T23:59:02.161Z,4.90
